Time;durP1;ratioP1;P1;durP2;ratioP2;P2;SDS_P1;SDS_P2;PMS_P1;PMS_P2;Temp;Humidity;BMP_temperature;BMP_pressure;BME280_temperature;BME280_humidity;BME280_pressure;Samples;Min_cycle;Max_cycle;Signal;HPM_P1;HPM_P2
2024/03/08 00:02:11;;;;;;;38.93;16.80;;;;;;;-145.69;68.38;52466.16;5112816;28;20193;-81
2024/03/08 00:04:38;;;;;;;42.77;17.67;;;;;;;-145.69;68.07;52456.28;5113017;28;20208;-81
2024/03/08 00:07:06;;;;;;;39.77;16.67;;;;;;;-145.69;68.01;52484.00;5113020;28;20201;-81
2024/03/08 00:09:32;;;;;;;36.23;16.30;;;;;;;-145.69;67.92;52472.13;5113221;28;20289;-80
2024/03/08 00:11:59;;;;;;;36.30;16.63;;;;;;;-145.69;68.10;52450.31;5112203;28;20683;-81
2024/03/08 00:14:27;;;;;;;41.03;17.70;;;;;;;-145.69;68.21;52448.34;5092512;28;20617;-81
2024/03/08 00:16:54;;;;;;;38.10;16.90;;;;;;;-145.69;68.22;52438.44;5092509;28;20198;-81
2024/03/08 00:19:20;;;;;;;43.07;17.50;;;;;;;-145.69;68.03;52474.09;5092591;28;20576;-80
2024/03/08 00:21:47;;;;;;;38.83;16.50;;;;;;;-145.69;68.38;52487.97;5092517;28;20206;-80
2024/03/08 00:24:13;;;;;;;36.90;17.43;;;;;;;-145.69;67.98;52491.91;5095996;28;20199;-80
2024/03/08 00:26:41;;;;;;;47.50;18.70;;;;;;;-145.69;68.10;52450.31;5113235;28;20583;-80
2024/03/08 00:29:08;;;;;;;47.27;18.17;;;;;;;-145.69;68.21;52436.47;5112339;28;20200;-81
2024/03/08 00:31:36;;;;;;;39.00;16.93;;;;;;;-145.69;68.00;52454.28;5115669;28;20224;-80
2024/03/08 00:34:02;;;;;;;38.17;17.37;;;;;;;-145.69;68.17;52468.16;5133357;27;20203;-80
2024/03/08 00:36:30;;;;;;;41.93;17.07;;;;;;;-145.69;68.16;52452.31;5133000;28;20609;-80
2024/03/08 00:38:56;;;;;;;39.80;17.80;;;;;;;-145.69;67.89;52448.34;5120098;28;20197;-80
2024/03/08 00:41:23;;;;;;;41.50;17.87;;;;;;;-145.69;68.32;52440.44;5112407;28;20204;-81
2024/03/08 00:43:52;;;;;;;38.93;17.90;;;;;;;-145.69;67.65;52452.31;5112557;28;20205;-81
2024/03/08 00:46:18;;;;;;;38.63;15.97;;;;;;;-145.69;67.93;52460.22;5112692;28;20204;-81
2024/03/08 00:48:47;;;;;;;43.60;17.93;;;;;;;-145.69;68.20;52446.38;5112736;28;20206;-80
2024/03/08 00:51:15;;;;;;;50.13;17.37;;;;;;;-145.69;68.12;52487.97;5112983;28;20288;-81
2024/03/08 00:53:42;;;;;;;43.37;18.73;;;;;;;-145.69;68.18;52472.13;5112192;28;20229;-80
2024/03/08 00:56:10;;;;;;;44.50;17.43;;;;;;;-145.69;68.20;52489.94;5112795;28;20208;-80
2024/03/08 00:58:37;;;;;;;41.20;18.13;;;;;;;-145.69;68.06;52495.88;5112092;28;20198;-81
2024/03/08 01:01:04;;;;;;;38.33;17.20;;;;;;;-145.69;68.05;52472.13;5112649;28;20563;-80
2024/03/08 01:03:34;;;;;;;43.80;18.83;;;;;;;-145.69;68.00;52480.03;5116176;28;20229;-80
2024/03/08 01:06:02;;;;;;;43.20;17.20;;;;;;;-145.69;68.00;52460.22;5115747;27;20582;-80
2024/03/08 01:08:28;;;;;;;41.87;17.90;;;;;;;-145.69;67.67;52458.25;5116309;28;20197;-80
2024/03/08 01:10:55;;;;;;;38.90;17.93;;;;;;;-145.69;67.70;52476.06;5116494;28;20216;-81
2024/03/08 01:13:21;;;;;;;38.70;16.93;;;;;;;-145.69;67.65;52456.28;5115686;28;20225;-81
2024/03/08 01:15:48;;;;;;;38.20;16.40;;;;;;;-145.69;68.02;52468.16;5116143;28;20201;-81
2024/03/08 01:18:14;;;;;;;41.57;18.17;;;;;;;-145.69;67.80;52412.69;5115771;28;20213;-81
2024/03/08 01:20:41;;;;;;;49.10;18.67;;;;;;;-145.69;68.15;52489.94;5115330;28;20275;-81
2024/03/08 01:23:10;;;;;;;42.13;18.20;;;;;;;-145.69;68.28;52442.41;5115525;28;20218;-80
2024/03/08 01:25:37;;;;;;;38.97;17.97;;;;;;;-145.69;68.34;52478.06;5130574;27;20203;-81
2024/03/08 01:28:04;;;;;;;42.97;17.83;;;;;;;-145.69;68.62;52462.22;5136673;27;20204;-81
2024/03/08 01:30:32;;;;;;;44.03;19.67;;;;;;;-145.69;68.79;52432.50;5136856;27;20208;-80
2024/03/08 01:33:02;;;;;;;46.27;19.40;;;;;;;-145.69;68.69;52468.16;5136711;27;20225;-80
2024/03/08 01:35:28;;;;;;;46.17;18.30;;;;;;;-145.69;68.68;52480.03;5135486;27;20196;-80
2024/03/08 01:37:55;;;;;;;49.67;19.70;;;;;;;-145.69;68.94;52456.28;5115871;28;20189;-80
2024/03/08 01:40:23;;;;;;;50.17;19.50;;;;;;;-145.69;69.15;52404.78;5116067;27;20274;-81
2024/03/08 01:42:50;;;;;;;43.53;19.13;;;;;;;-145.69;68.88;52450.31;5115676;28;20211;-80
2024/03/08 01:45:16;;;;;;;54.27;20.80;;;;;;;-145.69;69.14;52452.31;5115300;28;20202;-80
2024/03/08 01:47:43;;;;;;;49.97;19.53;;;;;;;-145.69;68.81;52442.41;5116019;28;20404;-80
2024/03/08 01:50:10;;;;;;;50.80;20.40;;;;;;;-145.69;69.00;52497.84;5115957;28;20205;-81
2024/03/08 01:52:39;;;;;;;49.13;20.17;;;;;;;-145.69;69.25;52456.28;5115382;28;20671;-81
2024/03/08 01:55:07;;;;;;;45.23;19.87;;;;;;;-145.69;68.99;52458.25;5115442;28;20838;-81
2024/03/08 01:57:37;;;;;;;46.70;18.67;;;;;;;-145.69;68.88;52438.44;5115523;28;20680;-81
2024/03/08 02:00:05;;;;;;;52.80;20.43;;;;;;;-145.69;68.99;52440.44;5116086;28;20529;-80
2024/03/08 02:02:33;;;;;;;48.43;19.17;;;;;;;-145.69;68.94;52476.06;5115286;28;20210;-81
2024/03/08 02:05:01;;;;;;;47.40;19.97;;;;;;;-145.69;68.97;52438.44;5115587;28;20193;-80
2024/03/08 02:07:28;;;;;;;46.47;20.23;;;;;;;-145.69;69.31;52450.31;5115110;28;20537;-80
2024/03/08 02:09:54;;;;;;;49.47;19.03;;;;;;;-145.69;69.45;52497.84;5115158;28;20312;-80
2024/03/08 02:12:21;;;;;;;47.17;19.27;;;;;;;-145.69;69.32;52420.63;5114904;28;20217;-80
2024/03/08 02:14:49;;;;;;;55.43;20.67;;;;;;;-145.69;69.93;52484.00;5114288;28;20417;-80
2024/03/08 02:17:15;;;;;;;49.33;20.50;;;;;;;-145.69;69.90;52446.38;5115383;28;20208;-80
2024/03/08 02:19:42;;;;;;;51.67;21.53;;;;;;;-145.69;69.53;52480.03;5114793;28;20193;-81
2024/03/08 02:22:10;;;;;;;47.93;20.53;;;;;;;-145.69;69.76;52434.47;5114549;28;20194;-81
2024/03/08 02:24:36;;;;;;;52.53;21.30;;;;;;;-145.69;69.71;52448.34;5115279;28;20212;-81
2024/03/08 02:27:03;;;;;;;45.73;20.77;;;;;;;-145.69;69.20;52460.22;5114702;27;20200;-80
2024/03/08 02:29:30;;;;;;;45.97;20.67;;;;;;;-145.69;69.13;52448.34;5115039;28;20205;-81
2024/03/08 02:31:57;;;;;;;56.03;21.67;;;;;;;-145.69;68.61;52446.38;5114594;28;20202;-80
2024/03/08 02:34:23;;;;;;;49.10;20.90;;;;;;;-145.69;68.32;52446.38;5114773;28;20713;-81
2024/03/08 02:36:50;;;;;;;53.90;21.63;;;;;;;-145.69;67.85;52472.13;5124482;27;20193;-80
2024/03/08 02:39:19;;;;;;;48.30;20.83;;;;;;;-145.69;67.60;52460.22;5119123;27;20205;-81
2024/03/08 02:41:46;;;;;;;46.60;20.03;;;;;;;-145.69;67.50;52462.22;5114861;28;20246;-80
2024/03/08 02:44:13;;;;;;;48.13;20.57;;;;;;;-145.69;66.79;52442.41;5114715;28;20578;-80
2024/03/08 02:46:39;;;;;;;46.97;20.30;;;;;;;-145.69;66.65;52464.19;5114783;28;20201;-80
2024/03/08 02:49:07;;;;;;;51.27;19.97;;;;;;;-145.69;66.57;52416.66;5114555;28;20193;-80
2024/03/08 02:51:35;;;;;;;46.60;20.20;;;;;;;-145.69;66.08;52466.16;5114654;28;20533;-80
2024/03/08 02:54:01;;;;;;;48.47;20.83;;;;;;;-145.69;66.03;52454.28;5113828;28;20775;-80
2024/03/08 02:56:30;;;;;;;44.97;19.27;;;;;;;-145.69;66.06;52444.38;5114058;28;20678;-80
2024/03/08 02:58:56;;;;;;;47.23;20.37;;;;;;;-145.69;66.47;52448.34;5114471;28;20197;-81
2024/03/08 03:01:23;;;;;;;39.30;18.17;;;;;;;-145.69;66.19;52428.53;5114104;28;20201;-80
2024/03/08 03:03:49;;;;;;;46.47;19.03;;;;;;;-145.69;66.26;52406.75;5114459;28;20208;-81
2024/03/08 03:06:15;;;;;;;49.53;18.77;;;;;;;-145.69;66.07;52438.44;5114136;28;20212;-81
2024/03/08 03:08:42;;;;;;;41.57;19.07;;;;;;;-145.69;65.93;52466.16;5114110;28;20648;-81
2024/03/08 03:11:09;;;;;;;42.50;19.50;;;;;;;-145.69;65.71;52458.25;5114145;28;20200;-81
2024/03/08 03:13:37;;;;;;;46.17;18.97;;;;;;;-145.69;65.59;52448.34;5113673;28;20217;-81
2024/03/08 03:16:05;;;;;;;39.50;17.00;;;;;;;-145.69;65.79;52450.31;5113594;28;20612;-81
2024/03/08 03:18:32;;;;;;;42.00;18.33;;;;;;;-145.69;65.56;52456.28;5113739;28;20204;-81
2024/03/08 03:20:59;;;;;;;41.07;18.00;;;;;;;-145.69;65.59;52416.66;5114370;28;20209;-81
2024/03/08 03:23:26;;;;;;;45.60;19.57;;;;;;;-145.69;65.34;52474.09;5113628;28;20193;-80
2024/03/08 03:25:52;;;;;;;40.33;17.60;;;;;;;-145.69;65.33;52430.53;5113755;28;20206;-80
2024/03/08 03:28:21;;;;;;;43.97;18.17;;;;;;;-145.69;64.83;52428.53;5113253;28;20225;-80
2024/03/08 03:30:49;;;;;;;43.40;19.93;;;;;;;-145.69;65.11;52448.34;5113826;28;20202;-81
2024/03/08 03:33:17;;;;;;;42.87;18.13;;;;;;;-145.69;65.10;52440.44;5113409;28;20228;-81
2024/03/08 03:35:44;;;;;;;41.07;17.47;;;;;;;-145.69;65.04;52450.31;5114062;28;20200;-82
2024/03/08 03:38:10;;;;;;;44.43;19.27;;;;;;;-145.69;65.34;52458.25;5113234;28;20287;-81
2024/03/08 03:40:37;;;;;;;42.73;18.53;;;;;;;-145.69;65.13;52456.28;5113597;28;20193;-81
2024/03/08 03:43:04;;;;;;;39.07;17.67;;;;;;;-145.69;64.75;52448.34;5113582;28;20209;-81
2024/03/08 03:45:34;;;;;;;39.70;17.23;;;;;;;-145.69;64.44;52450.31;5113250;28;20568;-81
2024/03/08 03:48:03;;;;;;;41.57;18.33;;;;;;;-145.69;64.31;52428.53;5113926;28;20205;-81
2024/03/08 03:50:29;;;;;;;39.70;18.97;;;;;;;-145.69;64.21;52424.59;5113121;28;20205;-81
2024/03/08 03:52:56;;;;;;;39.90;18.20;;;;;;;-145.69;64.11;52452.31;5112935;28;20241;-80
2024/03/08 03:55:22;;;;;;;42.40;18.37;;;;;;;-145.69;64.61;52454.28;5120764;27;20284;-81
2024/03/08 03:57:49;;;;;;;39.90;17.43;;;;;;;-145.69;64.25;52432.50;5113146;28;20201;-80
2024/03/08 04:00:16;;;;;;;39.73;17.43;;;;;;;-145.69;64.64;52464.19;5112991;28;20277;-81
2024/03/08 04:02:43;;;;;;;43.63;18.30;;;;;;;-145.69;64.31;52444.38;5113665;28;20291;-80
2024/03/08 04:05:11;;;;;;;43.13;17.43;;;;;;;-145.69;64.32;52452.31;5113439;28;20292;-80
2024/03/08 04:07:39;;;;;;;37.67;17.60;;;;;;;-145.69;64.28;52414.69;5113208;28;20197;-81
2024/03/08 04:10:07;;;;;;;40.03;17.60;;;;;;;-145.69;64.12;52432.50;5112568;28;20199;-81
2024/03/08 04:12:34;;;;;;;37.47;16.67;;;;;;;-145.69;64.11;52428.53;5113025;28;20659;-81
2024/03/08 04:15:01;;;;;;;36.43;15.77;;;;;;;-145.69;64.06;52446.38;5113240;28;20205;-81
2024/03/08 04:17:28;;;;;;;37.00;17.17;;;;;;;-145.69;64.51;52440.44;5112790;28;20201;-81
2024/03/08 04:19:54;;;;;;;38.07;17.07;;;;;;;-145.69;64.06;52440.44;5112399;28;20205;-81
2024/03/08 04:22:22;;;;;;;35.33;17.23;;;;;;;-145.69;63.59;52420.63;5112967;28;20197;-80
2024/03/08 04:24:49;;;;;;;33.20;15.80;;;;;;;-145.69;63.98;52438.44;5112686;28;20193;-80
2024/03/08 04:27:15;;;;;;;39.47;17.10;;;;;;;-145.69;64.28;52432.50;5111409;28;20552;-81
2024/03/08 04:29:42;;;;;;;42.37;18.47;;;;;;;-145.69;64.06;52420.63;5112880;28;20193;-80
2024/03/08 04:32:09;;;;;;;32.53;15.90;;;;;;;-145.69;63.61;52432.50;5113127;28;20197;-80
2024/03/08 04:34:36;;;;;;;38.20;16.80;;;;;;;-145.69;63.74;52414.69;5112593;28;20247;-80
2024/03/08 04:37:04;;;;;;;40.13;17.57;;;;;;;-145.69;63.81;52485.97;5114244;28;20651;-81
2024/03/08 04:39:32;;;;;;;37.97;16.70;;;;;;;-145.69;64.04;52420.63;5116599;28;20236;-81
2024/03/08 04:42:03;;;;;;;37.80;17.57;;;;;;;-145.69;63.72;52424.59;5116368;28;20197;-82
2024/03/08 04:44:29;;;;;;;37.73;17.30;;;;;;;-145.69;63.67;52432.50;5116767;28;20201;-81
2024/03/08 04:46:56;;;;;;;33.30;16.43;;;;;;;-145.69;63.69;52422.59;5116722;28;20204;-81
2024/03/08 04:49:22;;;;;;;33.90;16.43;;;;;;;-145.69;63.77;52444.38;5116743;28;20563;-81
2024/03/08 04:51:49;;;;;;;35.10;16.37;;;;;;;-145.69;63.71;52430.53;5116635;28;20559;-81
2024/03/08 04:54:15;;;;;;;38.23;16.57;;;;;;;-145.69;63.78;52444.38;5116375;28;20232;-81
2024/03/08 04:56:43;;;;;;;36.20;16.23;;;;;;;-145.69;63.69;52418.63;5116840;28;20201;-80
2024/03/08 04:59:09;;;;;;;34.30;15.97;;;;;;;-145.69;63.64;52406.75;5116746;28;20201;-81
2024/03/08 05:01:37;;;;;;;36.17;16.80;;;;;;;-145.69;63.79;52400.81;5116006;28;20193;-81
2024/03/08 05:04:04;;;;;;;38.67;16.63;;;;;;;-145.69;62.89;52426.56;5116323;28;20555;-80
2024/03/08 05:06:31;;;;;;;34.13;16.40;;;;;;;-145.69;63.29;52424.59;5116133;27;20204;-81
2024/03/08 05:08:58;;;;;;;35.23;15.77;;;;;;;-145.69;63.48;52434.47;5116268;28;20201;-80
2024/03/08 05:11:25;;;;;;;35.13;15.60;;;;;;;-145.69;63.14;52442.41;5116426;28;20204;-81
2024/03/08 05:13:53;;;;;;;32.57;14.97;;;;;;;-145.69;63.38;52444.38;5116545;28;20217;-81
2024/03/08 05:16:22;;;;;;;33.60;15.53;;;;;;;-145.69;63.25;52468.16;5115730;28;20211;-80
2024/03/08 05:18:48;;;;;;;30.23;14.10;;;;;;;-145.69;63.46;52428.53;5116514;28;20284;-81
2024/03/08 05:21:17;;;;;;;34.17;15.17;;;;;;;-145.69;63.33;52416.66;5115969;28;20201;-81
2024/03/08 05:23:43;;;;;;;35.53;16.20;;;;;;;-145.69;63.40;52454.28;5116641;28;20196;-81
2024/03/08 05:26:10;;;;;;;37.03;16.03;;;;;;;-145.69;63.38;52442.41;5115666;28;20197;-80
2024/03/08 05:28:36;;;;;;;32.30;15.23;;;;;;;-145.69;63.36;52446.38;5115965;28;20198;-80
2024/03/08 05:31:04;;;;;;;31.30;14.00;;;;;;;-145.69;62.96;52430.53;5116091;28;20204;-81
2024/03/08 05:33:31;;;;;;;37.37;15.43;;;;;;;-145.69;62.96;52428.53;5115777;28;20311;-81
2024/03/08 05:35:59;;;;;;;31.77;14.80;;;;;;;-145.69;62.83;52414.69;5116001;28;20199;-81
2024/03/08 05:38:25;;;;;;;33.83;15.20;;;;;;;-145.69;62.76;52381.00;5095470;28;20206;-81
2024/03/08 05:40:52;;;;;;;34.07;14.97;;;;;;;-145.69;62.67;52428.53;5095380;28;20616;-81
2024/03/08 05:43:19;;;;;;;32.37;15.07;;;;;;;-145.69;62.74;52402.78;5095290;28;20202;-81
2024/03/08 05:45:45;;;;;;;33.90;16.13;;;;;;;-145.69;62.78;52426.56;5095447;28;20564;-81
2024/03/08 05:48:14;;;;;;;33.30;15.30;;;;;;;-145.69;62.69;52446.38;5113527;28;20194;-80
2024/03/08 05:50:40;;;;;;;33.37;15.00;;;;;;;-145.69;62.97;52448.34;5115552;28;20205;-81
2024/03/08 05:53:07;;;;;;;35.00;15.13;;;;;;;-145.69;62.96;52450.31;5115238;28;20233;-82
2024/03/08 05:55:34;;;;;;;36.20;15.47;;;;;;;-145.69;63.14;52406.75;5115314;28;20227;-81
2024/03/08 05:58:01;;;;;;;31.57;14.60;;;;;;;-145.69;62.81;52377.06;5115201;28;20284;-81
2024/03/08 06:00:28;;;;;;;30.63;14.07;;;;;;;-145.69;62.76;52416.66;5115621;28;20193;-81
2024/03/08 06:02:55;;;;;;;34.53;13.77;;;;;;;-145.69;62.77;52448.34;5115541;28;20205;-81
2024/03/08 06:05:24;;;;;;;30.23;14.23;;;;;;;-145.69;63.00;52458.25;5115409;28;20679;-81
2024/03/08 06:07:53;;;;;;;29.23;14.00;;;;;;;-145.69;62.96;52410.72;5115251;28;20627;-81
2024/03/08 06:10:19;;;;;;;34.63;14.97;;;;;;;-145.69;62.92;52428.53;5115523;28;20251;-81
2024/03/08 06:12:46;;;;;;;30.47;14.40;;;;;;;-145.69;62.55;52412.69;5115423;28;20208;-81
2024/03/08 06:15:14;;;;;;;25.97;13.00;;;;;;;-145.69;62.44;52468.16;5115615;28;20226;-81
2024/03/08 06:17:41;;;;;;;31.60;14.30;;;;;;;-145.69;62.13;52446.38;5114953;28;20255;-81
2024/03/08 06:20:12;;;;;;;32.67;15.13;;;;;;;-145.69;62.64;52426.56;5115619;28;20201;-80
2024/03/08 06:22:44;;;;;;;32.07;14.73;;;;;;;-145.69;62.06;52420.63;5115055;28;20194;-80
2024/03/08 06:25:13;;;;;;;30.70;13.63;;;;;;;-145.69;62.22;52402.78;5114988;28;20208;-80
2024/03/08 06:27:40;;;;;;;29.53;13.93;;;;;;;-145.69;61.97;52414.69;5114990;28;20200;-80
2024/03/08 06:30:09;;;;;;;32.87;14.80;;;;;;;-145.69;62.19;52383.00;5114377;28;20206;-80
2024/03/08 06:32:36;;;;;;;28.60;13.93;;;;;;;-145.69;61.99;52440.44;5114665;27;20281;-80
2024/03/08 06:35:04;;;;;;;29.37;13.57;;;;;;;-145.69;62.23;52464.19;5114630;28;20232;-81
2024/03/08 06:37:31;;;;;;;32.75;17.30;;;;;;;-145.69;62.84;52460.22;5114132;28;20500;-81
2024/03/08 06:40:00;;;;;;;29.03;14.53;;;;;;;-145.69;62.01;52460.22;5114713;28;20200;-81
2024/03/08 06:42:27;;;;;;;29.00;13.90;;;;;;;-145.69;61.94;52436.47;5115492;28;20258;-81
2024/03/08 06:44:55;;;;;;;31.87;14.37;;;;;;;-145.69;62.01;52412.69;5114620;28;20202;-81
2024/03/08 06:47:25;;;;;;;44.37;18.87;;;;;;;-145.69;62.10;52428.53;5114710;28;20198;-80
2024/03/08 06:49:52;;;;;;;29.00;12.90;;;;;;;-145.69;62.17;52442.41;5114680;28;20207;-81
2024/03/08 06:52:18;;;;;;;26.07;11.57;;;;;;;-145.69;61.97;52448.34;5114079;28;20559;-81
2024/03/08 06:54:45;;;;;;;28.17;12.80;;;;;;;-145.69;62.07;52438.44;5126970;27;20220;-80
2024/03/08 06:57:13;;;;;;;27.57;12.60;;;;;;;-145.69;62.15;52440.44;5116766;27;20196;-81
2024/03/08 06:59:40;;;;;;;27.70;12.70;;;;;;;-145.69;61.75;52414.69;5113724;28;20198;-80
2024/03/08 07:02:08;;;;;;;26.70;12.43;;;;;;;-145.69;61.74;52430.53;5114581;28;20201;-80
2024/03/08 07:04:37;;;;;;;28.03;12.67;;;;;;;-145.69;61.77;52470.13;5114537;28;20212;-81
2024/03/08 07:07:04;;;;;;;27.17;12.40;;;;;;;-145.69;61.71;52434.47;5113866;28;20190;-80
2024/03/08 07:09:31;;;;;;;27.77;12.83;;;;;;;-145.69;61.57;52428.53;5114281;28;20293;-80
2024/03/08 07:11:57;;;;;;;26.43;11.67;;;;;;;-145.69;61.71;52456.28;5113899;28;20288;-82
2024/03/08 07:14:25;;;;;;;30.73;12.77;;;;;;;-145.69;61.24;52416.66;5114239;28;20228;-80
2024/03/08 07:16:52;;;;;;;26.30;12.43;;;;;;;-145.69;61.06;52418.63;5114101;28;20193;-81
2024/03/08 07:19:19;;;;;;;24.43;11.37;;;;;;;-145.69;60.58;52436.47;5114316;28;20225;-81
2024/03/08 07:21:47;;;;;;;25.23;12.53;;;;;;;-145.69;60.71;52450.31;5113913;28;20205;-82
2024/03/08 07:24:37;;;;;;;25.17;12.23;;;;;;;-145.69;60.64;52398.84;5113549;28;20208;-81
2024/03/08 07:27:04;;;;;;;27.50;12.30;;;;;;;-145.69;60.24;52420.63;5111524;28;20189;-82
2024/03/08 07:29:32;;;;;;;25.83;12.47;;;;;;;-145.69;60.51;52390.91;5114039;28;20197;-82
2024/03/08 07:32:11;;;;;;;25.33;12.03;;;;;;;-145.69;60.54;52410.72;5113657;28;20209;-81
2024/03/08 07:34:39;;;;;;;24.43;12.83;;;;;;;-145.69;60.47;52440.44;5112923;28;20229;-83
2024/03/08 07:37:10;;;;;;;25.57;11.80;;;;;;;-145.69;59.87;52396.84;5112923;28;20197;-82
2024/03/08 07:39:38;;;;;;;24.93;12.17;;;;;;;-145.69;60.11;52442.41;5113289;28;20552;-82
2024/03/08 07:42:04;;;;;;;21.17;10.90;;;;;;;-145.69;59.36;52440.44;5113855;28;20204;-82
2024/03/08 07:44:32;;;;;;;23.00;11.90;;;;;;;-145.69;59.08;52396.84;5113462;28;20225;-81
2024/03/08 07:46:59;;;;;;;24.27;11.90;;;;;;;-145.69;59.29;52381.00;5113288;28;20663;-81
2024/03/08 07:49:26;;;;;;;24.17;11.03;;;;;;;-145.69;58.83;52394.88;5112863;28;20276;-81
2024/03/08 07:51:53;;;;;;;21.90;11.03;;;;;;;-145.69;58.61;52416.66;5113748;28;20201;-81
2024/03/08 07:54:20;;;;;;;27.27;11.60;;;;;;;-145.69;58.19;52400.81;5112943;28;20758;-82
2024/03/08 07:56:46;;;;;;;25.17;11.63;;;;;;;-145.69;58.38;52436.47;5113463;28;20254;-81
2024/03/08 07:59:13;;;;;;;22.30;10.97;;;;;;;-145.69;58.76;52400.81;5113150;28;20198;-81
2024/03/08 08:01:39;;;;;;;22.30;11.30;;;;;;;-145.69;58.90;52424.59;5113080;28;20201;-82
2024/03/08 08:04:11;;;;;;;21.63;10.87;;;;;;;-145.69;58.33;52404.78;5113009;28;20201;-82
2024/03/08 08:06:41;;;;;;;23.37;12.07;;;;;;;-145.69;58.07;52414.69;5113189;28;20201;-82
2024/03/08 08:09:14;;;;;;;21.83;10.47;;;;;;;-145.69;57.98;52396.84;5112531;28;20193;-82
2024/03/08 08:11:40;;;;;;;23.10;11.20;;;;;;;-145.69;57.63;52384.97;5112396;28;20560;-80
2024/03/08 08:14:14;;;;;;;24.47;11.17;;;;;;;-145.69;57.20;52400.81;5112588;28;20228;-80
2024/03/08 08:16:42;;;;;;;23.67;10.07;;;;;;;-145.69;56.61;52373.09;5113376;28;20201;-81
2024/03/08 08:19:10;;;;;;;20.20;10.30;;;;;;;-145.69;56.47;52400.81;5112572;28;20288;-82
2024/03/08 08:21:37;;;;;;;25.57;10.17;;;;;;;-145.69;56.91;52420.63;5113185;28;20205;-81
2024/03/08 08:24:04;;;;;;;20.67;10.80;;;;;;;-145.69;56.45;52384.97;5112436;28;20571;-81
2024/03/08 08:26:32;;;;;;;19.70;9.63;;;;;;;-145.69;56.84;52404.78;5112795;28;20284;-82
2024/03/08 08:28:59;;;;;;;20.17;10.13;;;;;;;-145.69;56.69;52353.28;5112619;28;20197;-81
2024/03/08 08:31:26;;;;;;;22.07;10.33;;;;;;;-145.69;55.73;52430.53;5112656;28;20201;-81
2024/03/08 08:33:57;;;;;;;20.23;10.33;;;;;;;-145.69;55.92;52412.69;5112659;28;20193;-81
2024/03/08 08:36:25;;;;;;;24.10;10.90;;;;;;;-145.69;55.49;52406.75;5112752;28;20189;-81
2024/03/08 08:38:53;;;;;;;20.77;9.80;;;;;;;-145.69;55.79;52392.91;5112609;28;20197;-81
2024/03/08 08:41:21;;;;;;;23.33;10.33;;;;;;;-145.69;54.96;52430.53;5112984;28;20202;-81
2024/03/08 08:43:49;;;;;;;19.13;9.63;;;;;;;-145.69;54.74;52402.78;5112311;28;20219;-81
2024/03/08 08:46:18;;;;;;;17.17;9.00;;;;;;;-145.69;55.34;52384.97;5112844;28;20201;-81
2024/03/08 08:48:46;;;;;;;19.63;9.73;;;;;;;-145.69;54.57;52384.97;5112153;28;20660;-81
2024/03/08 08:51:13;;;;;;;16.27;9.50;;;;;;;-145.69;54.10;52398.84;5113080;28;20286;-81
2024/03/08 08:53:42;;;;;;;19.03;9.07;;;;;;;-145.69;52.81;52400.81;5112200;28;20225;-80
2024/03/08 08:56:12;;;;;;;19.63;9.37;;;;;;;-145.69;52.59;52349.31;5112312;28;20270;-79
2024/03/08 08:58:46;;;;;;;16.73;8.70;;;;;;;-145.69;51.98;52408.75;5112920;28;20273;-81
2024/03/08 09:01:18;;;;;;;18.57;9.43;;;;;;;-145.69;52.92;52384.97;5112290;28;20237;-81
2024/03/08 09:03:46;;;;;;;17.23;8.90;;;;;;;-145.69;52.37;52369.13;5112466;28;20198;-80
2024/03/08 09:06:13;;;;;;;16.80;8.63;;;;;;;-145.69;52.43;52377.06;5112281;28;20209;-80
2024/03/08 09:08:43;;;;;;;18.07;9.57;;;;;;;-145.69;51.53;52355.28;5112625;28;20197;-80
2024/03/08 09:11:12;;;;;;;22.73;9.73;;;;;;;-145.69;51.70;52371.13;5112677;28;20202;-80
2024/03/08 09:13:40;;;;;;;20.57;10.10;;;;;;;-145.69;50.87;52349.31;5112285;28;20297;-80
2024/03/08 09:16:08;;;;;;;19.13;9.00;;;;;;;-145.69;50.77;52373.09;5111751;28;20239;-80
2024/03/08 09:18:35;;;;;;;14.63;8.70;;;;;;;-145.69;50.22;52383.00;5104420;28;20634;-80
2024/03/08 09:21:01;;;;;;;19.13;9.23;;;;;;;-145.69;50.42;52371.13;5111934;28;20205;-80
2024/03/08 09:23:30;;;;;;;17.70;8.80;;;;;;;-145.69;49.74;52384.97;5114404;28;20202;-79
2024/03/08 09:25:58;;;;;;;21.00;9.83;;;;;;;-145.69;50.02;52369.13;5116163;28;20664;-79
2024/03/08 09:28:24;;;;;;;14.90;8.30;;;;;;;-145.69;49.10;52398.84;5115454;28;20297;-79
2024/03/08 09:30:54;;;;;;;16.90;8.90;;;;;;;-145.69;49.73;52355.28;5116335;28;20552;-78
2024/03/08 09:33:21;;;;;;;17.03;8.63;;;;;;;-145.69;49.58;52383.00;5115859;28;20194;-78
2024/03/08 09:35:53;;;;;;;17.23;8.57;;;;;;;-145.69;49.82;52345.38;5115924;28;20324;-81
2024/03/08 09:38:22;;;;;;;19.60;9.10;;;;;;;-145.69;49.30;52361.22;5115557;28;20197;-81
2024/03/08 09:40:49;;;;;;;19.45;10.50;;;;;;;-145.69;49.46;52357.25;5115170;28;20435;-80
2024/03/08 09:43:18;;;;;;;17.63;9.57;;;;;;;-145.69;49.53;52353.28;5115716;28;20201;-80
2024/03/08 09:45:46;;;;;;;17.33;9.00;;;;;;;-145.69;48.72;52355.28;5115673;28;20236;-79
2024/03/08 09:48:13;;;;;;;18.83;8.83;;;;;;;-145.69;48.46;52365.16;5115541;28;20202;-80
2024/03/08 09:50:41;;;;;;;17.40;8.27;;;;;;;-145.69;47.00;52396.84;5115277;28;20701;-80
2024/03/08 09:53:08;;;;;;;19.10;9.17;;;;;;;-145.69;47.02;52349.31;5115450;27;20631;-79
2024/03/08 09:55:36;;;;;;;18.07;9.10;;;;;;;-145.69;46.49;52327.53;5115564;27;20293;-79
2024/03/08 09:58:36;;;;;;;17.80;9.30;;;;;;;-145.69;46.74;52337.44;5112887;27;20296;-81
2024/03/08 10:01:06;;;;;;;16.77;8.73;;;;;;;-145.69;45.74;52341.41;5115457;28;20197;-82
2024/03/08 10:03:36;;;;;;;18.03;9.27;;;;;;;-145.69;45.42;52313.69;5115477;28;20291;-82
2024/03/08 10:06:03;;;;;;;18.30;9.23;;;;;;;-145.69;45.40;52337.44;5114534;27;20208;-81
2024/03/08 10:08:30;;;;;;;16.60;8.57;;;;;;;-145.69;45.70;52309.72;5114933;28;20205;-82
2024/03/08 10:10:58;;;;;;;17.70;8.43;;;;;;;-145.69;45.90;52309.72;5115250;28;20213;-81
2024/03/08 10:13:26;;;;;;;16.97;8.60;;;;;;;-145.69;44.74;52341.41;5115102;28;20209;-81
2024/03/08 10:15:53;;;;;;;17.53;8.93;;;;;;;-145.69;47.65;52303.78;5114848;28;20232;-80
2024/03/08 10:18:23;;;;;;;20.00;8.23;;;;;;;-145.69;46.49;52347.34;5114486;28;20750;-82
2024/03/08 10:21:04;;;;;;;13.97;7.83;;;;;;;-145.69;46.51;52333.47;5115207;28;20201;-82
2024/03/08 10:23:31;;;;;;;16.03;8.10;;;;;;;-145.69;46.41;52349.31;5094718;28;20213;-81
2024/03/08 10:26:09;;;;;;;17.83;8.43;;;;;;;-145.69;45.44;52309.72;5094491;28;20202;-82
2024/03/08 10:28:36;;;;;;;16.57;8.17;;;;;;;-145.69;45.94;52333.47;5112163;27;20335;-82
2024/03/08 10:31:03;;;;;;;13.87;8.00;;;;;;;-145.69;45.17;52307.75;5114717;28;20197;-82
2024/03/08 10:33:31;;;;;;;16.33;8.00;;;;;;;-145.69;45.40;52313.69;5114259;28;20229;-82
2024/03/08 10:35:58;;;;;;;17.30;7.80;;;;;;;-145.69;45.89;52341.41;5114061;28;20250;-70
2024/03/08 10:38:40;;;;;;;15.73;8.80;;;;;;;-145.69;45.77;52313.69;5114282;28;20270;-81
2024/03/08 10:41:12;;;;;;;19.03;8.43;;;;;;;-145.69;45.19;52321.59;5114886;28;20205;-81
2024/03/08 10:44:06;;;;;;;14.73;7.83;;;;;;;-145.69;45.19;52301.81;5114698;28;20201;-81
2024/03/08 10:46:47;;;;;;;14.80;8.27;;;;;;;-145.69;44.81;52321.59;5114561;28;20201;-81
2024/03/08 10:49:18;;;;;;;16.70;9.18;;;;;;;-145.69;44.16;52287.94;5111396;28;20446;-81
2024/03/08 10:51:45;;;;;;;14.75;7.75;;;;;;;-145.69;44.37;52317.66;5114306;28;20197;-82
2024/03/08 10:54:15;;;;;;;14.57;7.40;;;;;;;-145.69;44.30;52305.75;5114300;28;20323;-82
2024/03/08 10:56:42;;;;;;;19.38;8.95;;;;;;;-145.69;44.30;52307.75;5114116;28;20316;-81
2024/03/08 10:59:09;;;;;;;13.63;7.32;;;;;;;-145.69;44.03;52349.31;5114151;28;20197;-82
2024/03/08 11:01:36;;;;;;;18.03;8.60;;;;;;;-145.69;43.79;52293.88;5114374;28;20547;-80
2024/03/08 11:04:05;;;;;;;18.70;9.07;;;;;;;-145.69;45.06;52297.84;5114090;28;20196;-81
2024/03/08 11:06:45;;;;;;;16.37;8.60;;;;;;;-145.69;46.56;52349.31;5114436;28;20245;-81
2024/03/08 11:09:29;;;;;;;16.07;8.33;;;;;;;-145.69;47.98;52357.25;5113945;28;20198;-81